Time;durP1;ratioP1;P1;durP2;ratioP2;P2;SDS_P1;SDS_P2;PMS_P1;PMS_P2;Temp;Humidity;BMP_temperature;BMP_pressure;BME280_temperature;BME280_humidity;BME280_pressure;Samples;Min_cycle;Max_cycle;Signal;HPM_P1;HPM_P2
2023/10/13 00:00:25;;;;;;;27.30;8.60;;;;;;;22.16;57.67;98911.92;135902;1273;22536;-65
2023/10/13 00:03:45;;;;;;;24.90;8.60;;;;;;;22.02;58.15;98911.66;135915;1273;22521;-66
2023/10/13 00:06:47;;;;;;;;;;;;;;;21.98;58.60;98908.12;135937;1273;24381;-65
2023/10/13 00:09:50;;;;;;;25.50;8.40;;;;;;;22.08;58.49;98908.66;135901;1254;22532;-65
2023/10/13 00:12:52;;;;;;;;;;;;;;;22.32;57.70;98901.13;135950;1273;22595;-65
2023/10/13 00:15:58;;;;;;;;;;;;;;;22.27;57.85;98898.02;135932;1273;22634;-66
2023/10/13 00:19:01;;;;;;;28.40;8.50;;;;;;;22.31;57.56;98898.86;135924;1273;22532;-64
2023/10/13 00:22:08;;;;;;;;;;;;;;;22.27;57.54;98898.20;135897;1273;22547;-65
2023/10/13 00:25:19;;;;;;;31.00;9.10;;;;;;;22.22;57.42;98899.29;135951;1257;23642;-65
2023/10/13 00:28:24;;;;;;;27.10;8.70;;;;;;;22.24;57.05;98902.80;135866;1255;24228;-65
2023/10/13 00:31:31;;;;;;;25.90;8.80;;;;;;;22.25;56.79;98901.35;135901;1273;22520;-66
2023/10/13 00:34:37;;;;;;;27.90;8.60;;;;;;;22.27;56.62;98898.59;135934;1273;22540;-65
2023/10/13 00:37:44;;;;;;;26.90;9.00;;;;;;;22.28;56.31;98903.26;135900;1273;22525;-65
2023/10/13 00:40:52;;;;;;;29.10;9.00;;;;;;;22.16;56.23;98903.66;135926;1273;25442;-62
2023/10/13 00:44:04;;;;;;;27.10;8.70;;;;;;;21.95;56.74;98902.34;135941;1273;22554;-64
2023/10/13 00:47:09;;;;;;;;;;;;;;;21.97;56.75;98899.99;135903;1273;22501;-64
2023/10/13 00:50:15;;;;;;;28.60;9.40;;;;;;;21.83;57.01;98905.45;135928;1273;22527;-64
2023/10/13 00:53:17;;;;;;;28.40;9.60;;;;;;;21.72;57.20;98902.39;135946;1273;22551;-66
2023/10/13 00:56:21;;;;;;;34.50;14.30;;;;;;;21.67;57.22;98896.80;135919;1273;25415;-64
2023/10/13 00:59:25;;;;;;;36.50;18.00;;;;;;;21.73;57.19;98899.95;135919;1273;22569;-65
2023/10/13 01:02:38;;;;;;;33.90;14.10;;;;;;;21.61;57.29;98902.80;135908;1273;22478;-65
2023/10/13 01:05:41;;;;;;;26.70;11.10;;;;;;;21.40;57.28;98899.27;135873;1273;22543;-64
2023/10/13 01:08:44;;;;;;;;;;;;;;;21.25;57.34;98888.41;135943;1273;22517;-63
2023/10/13 01:11:48;;;;;;;32.50;12.50;;;;;;;21.35;56.95;98882.72;135920;1273;22550;-65
2023/10/13 01:14:50;;;;;;;29.10;12.90;;;;;;;21.14;57.55;98879.23;135934;1273;22530;-66
2023/10/13 01:17:56;;;;;;;;;;;;;;;21.13;57.61;98878.22;135895;1273;25449;-66
2023/10/13 01:20:59;;;;;;;28.20;9.50;;;;;;;21.10;57.90;98882.45;135888;1273;25259;-64
2023/10/13 01:24:07;;;;;;;30.10;9.40;;;;;;;21.21;57.88;98884.86;135863;1273;24209;-66
2023/10/13 01:27:17;;;;;;;28.80;9.30;;;;;;;21.22;57.82;98882.95;135916;1273;25309;-65
2023/10/13 01:30:24;;;;;;;26.50;9.50;;;;;;;21.22;57.65;98890.60;135915;1273;22536;-66
2023/10/13 01:33:28;;;;;;;26.60;10.40;;;;;;;21.05;57.62;98891.63;135865;1273;25484;-65
2023/10/13 01:36:35;;;;;;;27.70;10.50;;;;;;;20.80;57.58;98892.82;135877;1273;25414;-66
2023/10/13 01:39:37;;;;;;;27.50;10.10;;;;;;;20.70;57.40;98897.42;135945;1273;22524;-66
2023/10/13 01:42:40;;;;;;;;;;;;;;;20.79;57.14;98895.98;135970;1268;22504;-65
2023/10/13 01:45:49;;;;;;;27.20;9.30;;;;;;;20.64;57.50;98895.64;135967;1273;22525;-67
2023/10/13 01:48:54;;;;;;;24.20;9.20;;;;;;;20.42;58.07;98891.16;136046;1273;22534;-65
2023/10/13 01:51:56;;;;;;;23.00;7.40;;;;;;;20.58;57.80;98889.50;135983;1273;22535;-65
2023/10/13 01:55:01;;;;;;;;;;;;;;;20.67;57.89;98893.83;135970;1273;22517;-65
2023/10/13 01:58:03;;;;;;;26.60;9.80;;;;;;;20.81;57.40;98893.66;136013;1273;22592;-67
2023/10/13 02:01:07;;;;;;;;;;;;;;;20.80;57.02;98893.36;135947;1273;22499;-66
2023/10/13 02:04:10;;;;;;;29.10;10.20;;;;;;;20.76;56.82;98892.03;136009;1273;22523;-61
2023/10/13 02:07:15;;;;;;;24.80;9.20;;;;;;;20.65;57.23;98888.52;135978;1273;22552;-62
2023/10/13 02:10:23;;;;;;;28.00;9.20;;;;;;;20.73;56.92;98885.25;135965;1273;22543;-63
2023/10/13 02:13:25;;;;;;;29.40;8.30;;;;;;;20.71;56.97;98878.27;135995;1273;22523;-65
2023/10/13 02:16:28;;;;;;;;;;;;;;;20.63;57.06;98887.59;135951;1273;22498;-64
2023/10/13 02:19:31;;;;;;;25.70;8.20;;;;;;;20.68;57.09;98893.65;135986;1273;22572;-61
2023/10/13 02:22:33;;;;;;;;;;;;;;;20.73;56.81;98893.73;135982;1273;22494;-64
2023/10/13 02:25:42;;;;;;;26.00;8.00;;;;;;;20.62;56.67;98902.50;135940;1273;22520;-64
2023/10/13 02:28:50;;;;;;;25.40;8.50;;;;;;;20.68;56.24;98908.64;135999;1273;25408;-61
2023/10/13 02:31:55;;;;;;;26.70;9.80;;;;;;;20.58;56.41;98910.98;136002;1273;26634;-63
2023/10/13 02:35:05;;;;;;;24.20;8.50;;;;;;;20.62;56.23;98914.33;135986;1273;22534;-66
2023/10/13 02:38:10;;;;;;;23.30;8.20;;;;;;;20.66;56.18;98911.26;135981;1273;22520;-65
2023/10/13 02:41:18;;;;;;;24.30;7.80;;;;;;;20.50;55.98;98909.88;136005;1273;22595;-63
2023/10/13 02:44:27;;;;;;;23.90;7.40;;;;;;;20.29;56.40;98911.05;136028;1273;24251;-62
2023/10/13 02:47:31;;;;;;;24.80;7.50;;;;;;;20.23;56.61;98911.09;136014;1273;22519;-63
2023/10/13 02:50:34;;;;;;;24.10;7.10;;;;;;;20.24;56.70;98908.17;135972;1273;25249;-61
2023/10/13 02:53:36;;;;;;;;;;;;;;;20.24;56.61;98906.05;136007;1273;22513;-63
2023/10/13 02:56:47;;;;;;;26.00;7.60;;;;;;;20.29;56.11;98903.95;136022;1273;22536;-65
2023/10/13 02:59:56;;;;;;;24.00;7.90;;;;;;;20.14;56.25;98904.09;135994;1273;22516;-61
2023/10/13 03:02:59;;;;;;;22.40;8.00;;;;;;;19.98;56.70;98901.73;135897;1273;22526;-64
2023/10/13 03:06:01;;;;;;;;;;;;;;;19.88;56.73;98899.03;136022;1273;22514;-65
2023/10/13 03:09:14;;;;;;;20.90;8.00;;;;;;;19.78;56.94;98903.48;135988;1273;22516;-65
2023/10/13 03:12:17;;;;;;;25.50;8.50;;;;;;;19.66;57.34;98900.88;135953;1273;22527;-65
2023/10/13 03:15:21;;;;;;;;;;;;;;;19.81;57.18;98900.23;136009;1273;22522;-64
2023/10/13 03:18:25;;;;;;;25.00;8.20;;;;;;;19.86;57.12;98905.40;135989;1273;22516;-63
2023/10/13 03:21:31;;;;;;;24.40;8.00;;;;;;;19.97;56.73;98904.90;135993;1273;22540;-63
2023/10/13 03:24:34;;;;;;;24.40;7.80;;;;;;;20.02;56.60;98907.70;136044;1273;25411;-65
2023/10/13 03:27:48;;;;;;;24.80;7.60;;;;;;;19.96;56.70;98904.59;135940;1273;25414;-62
2023/10/13 03:30:52;;;;;;;23.30;7.70;;;;;;;20.17;56.16;98913.54;135981;1273;22550;-65
2023/10/13 03:33:59;;;;;;;23.40;7.50;;;;;;;20.24;56.23;98914.40;135951;1273;24211;-60
2023/10/13 03:37:11;;;;;;;26.20;7.60;;;;;;;20.35;56.20;98911.55;135967;1273;22528;-60
2023/10/13 03:40:34;;;;;;;25.70;7.90;;;;;;;20.45;56.15;98906.27;135952;1273;22554;-63
2023/10/13 03:43:44;;;;;;;24.90;8.00;;;;;;;20.41;56.34;98910.21;135971;1273;22550;-61
2023/10/13 03:46:48;;;;;;;24.30;7.40;;;;;;;20.39;56.38;98909.22;136009;1273;24241;-60
2023/10/13 03:49:51;;;;;;;25.50;8.00;;;;;;;20.39;56.38;98917.52;135881;1273;23011;-63
2023/10/13 03:52:57;;;;;;;24.30;7.90;;;;;;;20.45;56.17;98919.92;135979;1273;22543;-63
2023/10/13 03:56:09;;;;;;;25.40;6.50;;;;;;;20.46;56.08;98922.70;135978;1273;25014;-62
2023/10/13 03:59:18;;;;;;;24.20;7.30;;;;;;;20.41;56.27;98918.23;135973;1273;24046;-62
2023/10/13 04:02:21;;;;;;;24.80;8.60;;;;;;;20.53;56.18;98917.42;135979;1273;22527;-62
2023/10/13 04:05:36;;;;;;;21.50;7.50;;;;;;;20.59;56.03;98913.41;135966;1273;22517;-64
2023/10/13 04:09:51;;;;;;;27.00;7.90;;;;;;;20.57;56.32;98914.99;135911;1273;22543;-64
2023/10/13 04:12:21;;;;;;;23.40;8.00;;;;;;;20.63;56.29;98911.97;135987;1273;22537;-63
2023/10/13 04:15:27;;;;;;;25.10;8.70;;;;;;;20.29;57.45;98915.30;136018;1273;22553;-59
2023/10/13 04:18:49;;;;;;;28.60;8.00;;;;;;;20.15;58.06;98910.69;135937;1272;22750;-61
2023/10/13 04:21:59;;;;;;;26.20;7.80;;;;;;;20.19;57.85;98911.86;135983;1273;22541;-65
2023/10/13 04:25:28;;;;;;;24.20;8.00;;;;;;;20.38;57.12;98913.35;135951;1251;22542;-65
2023/10/13 04:32:00;;;;;;;27.20;8.60;;;;;;;20.47;57.23;98909.63;135961;1273;22531;-63
2023/10/13 04:35:10;;;;;;;24.90;9.20;;;;;;;20.52;57.37;98904.30;135963;1257;22545;-66
2023/10/13 04:38:20;;;;;;;26.20;9.60;;;;;;;20.58;57.38;98903.14;136033;1273;22624;-66
2023/10/13 04:41:23;;;;;;;26.40;9.20;;;;;;;20.58;57.71;98905.88;136010;1273;22526;-66
2023/10/13 04:47:57;;;;;;;27.60;10.60;;;;;;;20.46;58.62;98905.83;135981;1273;22517;-66
2023/10/13 04:51:23;;;;;;;28.50;11.00;;;;;;;20.45;58.76;98905.73;135959;1272;22625;-67
2023/10/13 04:54:33;;;;;;;31.60;11.20;;;;;;;20.51;58.62;98908.20;135977;1273;24043;-66
2023/10/13 04:57:46;;;;;;;27.80;10.40;;;;;;;20.75;58.14;98917.64;135972;1273;25417;-64
2023/10/13 05:04:30;;;;;;;27.50;10.40;;;;;;;20.85;58.07;98915.64;135935;1273;22529;-66
2023/10/13 05:48:00;;;;;;;27.90;11.00;;;;;;;21.28;58.16;98932.30;135963;1274;22534;-62
2023/10/13 06:31:22;;;;;;;32.20;11.90;;;;;;;22.56;57.09;98962.11;135971;1273;22576;-65
2023/10/13 06:34:37;;;;;;;29.00;12.40;;;;;;;22.62;57.12;98963.23;135954;1251;24227;-63
2023/10/13 06:37:42;;;;;;;34.90;13.00;;;;;;;22.52;57.60;98964.84;135920;1273;22540;-65
2023/10/13 06:40:46;;;;;;;33.80;13.50;;;;;;;22.47;57.73;98960.77;135941;1273;22534;-60
2023/10/13 06:43:59;;;;;;;31.90;13.20;;;;;;;22.47;57.48;98962.60;135888;1273;25487;-63
2023/10/13 06:47:03;;;;;;;32.80;13.00;;;;;;;22.43;57.61;98967.58;135976;1273;22769;-65
2023/10/13 06:50:15;;;;;;;31.90;12.60;;;;;;;22.44;57.73;98970.18;135972;1273;24040;-63
2023/10/13 06:53:17;;;;;;;28.40;12.10;;;;;;;22.58;57.17;98970.80;135952;1273;22535;-64
2023/10/13 06:56:27;;;;;;;33.30;11.60;;;;;;;22.58;57.17;98967.21;135980;1273;22912;-65
2023/10/13 06:59:32;;;;;;;31.30;13.20;;;;;;;22.53;57.59;98970.02;135958;1273;22526;-63
2023/10/13 07:02:35;;;;;;;33.50;12.80;;;;;;;22.78;57.37;98974.09;135965;1273;22528;-63
2023/10/13 07:05:39;;;;;;;;;;;;;;;22.92;57.11;98974.20;135931;1273;25309;-61
2023/10/13 07:08:41;;;;;;;34.20;14.40;;;;;;;22.90;57.11;98974.94;135929;1272;22535;-65
2023/10/13 07:11:44;;;;;;;;;;;;;;;22.78;57.45;98972.35;136016;1273;22509;-62
2023/10/13 07:14:51;;;;;;;33.90;14.30;;;;;;;22.84;57.23;98969.91;135917;1251;24344;-62
2023/10/13 07:17:59;;;;;;;33.90;14.00;;;;;;;22.77;57.29;98960.69;135907;1273;22536;-63
2023/10/13 07:21:09;;;;;;;36.10;13.70;;;;;;;22.67;57.56;98963.77;135936;1273;22541;-63
2023/10/13 07:24:11;;;;;;;33.00;14.20;;;;;;;22.82;57.71;98962.36;135943;1273;22602;-64
2023/10/13 07:27:22;;;;;;;34.50;13.80;;;;;;;23.07;57.94;98958.88;135932;1273;22627;-65
2023/10/13 07:30:27;;;;;;;36.10;14.60;;;;;;;23.37;57.26;98958.81;135989;1273;22855;-64
2023/10/13 07:33:31;;;;;;;37.80;15.70;;;;;;;23.61;57.00;98960.02;135940;1273;22640;-60
2023/10/13 07:36:39;;;;;;;36.20;15.50;;;;;;;23.87;56.90;98957.63;135942;1273;25220;-61
2023/10/13 07:39:42;;;;;;;34.30;15.50;;;;;;;24.16;56.88;98954.94;135910;1257;22516;-62
2023/10/13 07:42:46;;;;;;;36.90;15.60;;;;;;;24.37;56.69;98950.04;135967;1273;22546;-64
2023/10/13 07:45:51;;;;;;;40.00;15.00;;;;;;;24.75;56.07;98953.86;135958;1273;25239;-60
2023/10/13 07:48:53;;;;;;;38.20;17.00;;;;;;;25.00;55.66;98950.16;135934;1273;22584;-65
2023/10/13 07:51:57;;;;;;;36.60;17.40;;;;;;;25.27;55.74;98954.67;135989;1273;22520;-64
2023/10/13 07:55:10;;;;;;;39.20;18.70;;;;;;;25.43;55.06;98954.01;135944;1273;22526;-62
2023/10/13 07:58:13;;;;;;;39.10;18.60;;;;;;;25.45;55.04;98954.14;135958;1273;22575;-65
2023/10/13 08:01:18;;;;;;;39.50;18.00;;;;;;;25.52;55.31;98949.00;135946;1273;22527;-64
2023/10/13 08:04:28;;;;;;;38.00;17.90;;;;;;;25.71;54.56;98945.23;135965;1273;22548;-62
2023/10/13 08:07:31;;;;;;;41.50;17.90;;;;;;;25.71;54.00;98947.21;135953;1273;22527;-62
2023/10/13 08:10:35;;;;;;;36.10;18.70;;;;;;;25.67;54.34;98944.48;135956;1273;22528;-64
2023/10/13 08:13:38;;;;;;;41.60;18.60;;;;;;;25.70;54.57;98947.65;135965;1259;22533;-63
2023/10/13 08:16:52;;;;;;;36.60;18.00;;;;;;;25.80;54.37;98945.90;135930;1273;25239;-65
2023/10/13 08:19:55;;;;;;;35.70;16.90;;;;;;;25.80;54.40;98954.00;135955;1273;22643;-62
2023/10/13 08:23:13;;;;;;;37.70;15.50;;;;;;;25.85;54.15;98955.14;135968;1273;22531;-64
2023/10/13 08:30:26;;;;;;;36.00;15.60;;;;;;;25.80;53.76;98955.08;135896;1273;22539;-64
2023/10/13 08:33:24;;;;;;;33.70;15.20;;;;;;;25.79;54.26;98957.87;135941;1273;22543;-65
2023/10/13 08:36:30;;;;;;;33.30;15.10;;;;;;;25.80;53.65;98957.02;135909;1273;22524;-65
2023/10/13 08:43:11;;;;;;;31.20;14.10;;;;;;;25.67;54.32;98959.51;135918;1273;22527;-65
2023/10/13 08:49:42;;;;;;;30.30;14.20;;;;;;;25.81;53.10;98967.15;135901;1273;22555;-63
2023/10/13 08:52:48;;;;;;;35.30;14.60;;;;;;;25.43;54.09;98967.84;135962;1273;22534;-65
2023/10/13 08:56:02;;;;;;;34.30;14.70;;;;;;;25.54;54.61;98967.32;135923;1273;22542;-65
2023/10/13 08:59:09;;;;;;;31.00;14.40;;;;;;;25.82;54.51;98965.17;135927;1273;25493;-65
2023/10/13 09:02:17;;;;;;;33.30;14.10;;;;;;;26.12;53.85;98965.30;135917;1273;22565;-63
2023/10/13 09:08:44;;;;;;;34.80;14.20;;;;;;;26.47;52.62;98955.27;135945;1273;22539;-64
2023/10/13 09:12:04;;;;;;;34.50;13.80;;;;;;;26.53;52.63;98948.55;135926;1273;22534;-65
2023/10/13 09:15:17;;;;;;;35.40;12.90;;;;;;;26.73;52.22;98944.27;135900;1273;22539;-65
2023/10/13 09:18:20;;;;;;;29.60;12.40;;;;;;;26.87;51.87;98945.81;135907;1273;25435;-65
2023/10/13 09:21:54;;;;;;;30.20;12.80;;;;;;;26.96;51.22;98946.02;135931;1273;23920;-65
2023/10/13 09:24:59;;;;;;;30.20;11.90;;;;;;;27.19;51.44;98943.29;135911;1273;26525;-64
2023/10/13 09:28:02;;;;;;;32.70;12.70;;;;;;;27.26;50.84;98942.25;135920;1273;22533;-66
2023/10/13 09:31:07;;;;;;;28.30;11.90;;;;;;;27.21;50.76;98932.66;135952;1273;22540;-65
2023/10/13 09:34:09;;;;;;;32.90;12.40;;;;;;;27.18;50.12;98929.00;135979;1273;22527;-66
2023/10/13 09:37:17;;;;;;;32.90;12.10;;;;;;;26.98;50.05;98934.59;135939;1273;22544;-66
2023/10/13 09:40:27;;;;;;;29.40;11.60;;;;;;;27.11;51.05;98933.23;135958;1273;22527;-65
2023/10/13 09:43:30;;;;;;;28.00;10.30;;;;;;;27.60;50.67;98944.02;135939;1257;22647;-64
2023/10/13 09:46:35;;;;;;;28.80;10.50;;;;;;;27.90;49.60;98945.59;135948;1273;22539;-64
2023/10/13 09:49:44;;;;;;;27.00;9.80;;;;;;;27.69;48.43;98938.58;135908;1273;25414;-64
2023/10/13 09:52:47;;;;;;;28.00;10.70;;;;;;;27.52;48.06;98938.27;135984;1273;22510;-65
2023/10/13 09:55:49;;;;;;;25.30;9.50;;;;;;;27.58;48.69;98934.64;135963;1273;22527;-65
2023/10/13 09:58:57;;;;;;;25.50;9.60;;;;;;;27.79;48.56;98935.16;135913;1273;22560;-64
2023/10/13 10:01:59;;;;;;;27.80;10.70;;;;;;;28.22;47.92;98929.48;135972;1273;25257;-65
2023/10/13 10:05:13;;;;;;;27.30;10.10;;;;;;;28.71;48.33;98925.98;135929;1273;22523;-64
2023/10/13 10:08:21;;;;;;;24.50;9.30;;;;;;;29.02;48.04;98914.23;135947;1273;22536;-65
2023/10/13 10:11:23;;;;;;;26.20;9.50;;;;;;;29.23;47.93;98909.79;135921;1273;22542;-65
2023/10/13 10:14:26;;;;;;;28.00;10.00;;;;;;;29.67;47.00;98905.84;135915;1273;22559;-64
2023/10/13 10:17:29;;;;;;;27.90;10.10;;;;;;;29.67;46.93;98904.42;135941;1273;22544;-65
2023/10/13 10:20:39;;;;;;;25.80;9.00;;;;;;;29.79;45.76;98898.95;135949;1273;22666;-65
2023/10/13 10:23:44;;;;;;;23.80;8.00;;;;;;;29.82;45.00;98896.99;135924;1270;22532;-65
2023/10/13 10:26:46;;;;;;;25.20;8.10;;;;;;;29.56;45.34;98892.59;135943;1273;24370;-63
2023/10/13 10:29:48;;;;;;;23.20;7.70;;;;;;;29.71;44.99;98893.69;135934;1273;22534;-64
2023/10/13 10:32:51;;;;;;;21.90;7.50;;;;;;;29.47;43.79;98890.80;135870;1273;22551;-63
2023/10/13 10:35:53;;;;;;;25.80;8.30;;;;;;;28.87;44.19;98895.23;135886;1273;22646;-64
2023/10/13 10:38:59;;;;;;;22.90;8.10;;;;;;;28.26;44.83;98905.54;135947;1273;22546;-64
2023/10/13 10:42:02;;;;;;;29.20;8.80;;;;;;;28.10;45.21;98903.25;135895;1273;25340;-64
2023/10/13 10:45:09;;;;;;;27.80;9.30;;;;;;;28.25;45.86;98901.20;135967;1273;22534;-64
2023/10/13 10:48:17;;;;;;;23.70;8.10;;;;;;;28.39;45.68;98893.29;135928;1273;22598;-64
2023/10/13 10:51:22;;;;;;;23.90;8.30;;;;;;;28.38;45.92;98889.91;135930;1273;22530;-64
2023/10/13 10:54:30;;;;;;;23.30;8.50;;;;;;;28.32;45.57;98888.92;135947;1273;22527;-64
2023/10/13 10:57:37;;;;;;;25.00;9.70;;;;;;;28.21;45.81;98884.47;135977;1273;22519;-64
2023/10/13 11:00:46;;;;;;;26.50;8.20;;;;;;;28.52;45.72;98880.37;135930;1273;22623;-64
2023/10/13 11:03:48;;;;;;;25.00;7.80;;;;;;;28.99;45.16;98878.98;135959;1273;22525;-64
2023/10/13 11:06:54;;;;;;;23.10;8.10;;;;;;;29.47;44.76;98872.27;135973;1273;23946;-64
2023/10/13 11:10:06;;;;;;;24.80;8.40;;;;;;;29.81;43.70;98864.78;135942;1273;22527;-64
2023/10/13 11:13:14;;;;;;;;;;;;;;;29.94;44.16;98865.48;135935;1273;22570;-64
2023/10/13 11:16:16;;;;;;;23.60;8.50;;;;;;;29.84;43.50;98864.55;135965;1260;22541;-64
2023/10/13 11:19:25;;;;;;;24.50;8.30;;;;;;;29.85;43.35;98863.42;135891;1273;22550;-65
2023/10/13 11:22:32;;;;;;;26.20;8.40;;;;;;;29.98;42.99;98858.86;135906;1273;22543;-65
2023/10/13 11:25:35;;;;;;;22.60;7.60;;;;;;;30.01;42.92;98852.84;135947;1254;24337;-64
2023/10/13 11:28:38;;;;;;;23.30;7.30;;;;;;;29.99;42.43;98850.36;135919;1257;24224;-64
2023/10/13 11:31:41;;;;;;;26.80;7.70;;;;;;;29.51;42.29;98844.32;135923;1273;22532;-62
2023/10/13 11:34:44;;;;;;;20.80;7.60;;;;;;;29.76;42.85;98842.64;135936;1273;22775;-65
2023/10/13 11:37:55;;;;;;;22.40;7.60;;;;;;;30.00;42.47;98841.86;135982;1273;22534;-63
2023/10/13 11:41:08;;;;;;;21.90;6.90;;;;;;;30.22;42.11;98837.98;135947;1273;24091;-62
2023/10/13 11:44:23;;;;;;;20.80;7.00;;;;;;;30.34;41.83;98835.77;135917;1273;22517;-60
2023/10/13 11:47:47;;;;;;;20.70;6.90;;;;;;;30.26;40.92;98825.11;135934;1273;22546;-64
2023/10/13 11:50:50;;;;;;;23.20;6.90;;;;;;;30.05;41.97;98822.65;135923;1273;22798;-64
2023/10/13 11:53:52;;;;;;;20.30;6.30;;;;;;;30.24;41.72;98816.54;135944;1273;24378;-65
2023/10/13 11:56:58;;;;;;;19.70;6.70;;;;;;;30.28;41.41;98813.44;135939;1273;22545;-64
2023/10/13 12:07:02;;;;;;;22.40;6.20;;;;;;;30.90;40.59;98801.61;135615;1278;22899;-63
2023/10/13 12:10:06;;;;;;;18.00;5.50;;;;;;;30.97;40.21;98802.28;135937;1273;26633;-64
2023/10/13 12:13:10;;;;;;;18.80;5.60;;;;;;;30.97;40.27;98809.80;135970;1273;22527;-65
2023/10/13 12:16:13;;;;;;;18.90;5.60;;;;;;;30.69;40.28;98807.72;135927;1273;22549;-64
2023/10/13 12:19:16;;;;;;;18.00;5.00;;;;;;;30.27;39.45;98805.95;135983;1273;22521;-65
2023/10/13 12:22:26;;;;;;;18.90;5.50;;;;;;;29.86;39.93;98801.95;135942;1273;22534;-62
2023/10/13 12:25:44;;;;;;;18.70;5.10;;;;;;;29.64;40.58;98801.59;135945;1273;22525;-63
2023/10/13 12:28:51;;;;;;;21.50;5.50;;;;;;;29.62;40.36;98800.47;135921;1273;22566;-63
2023/10/13 12:32:05;;;;;;;18.70;5.40;;;;;;;29.78;40.83;98792.73;135943;1273;22521;-64
2023/10/13 12:35:27;;;;;;;17.50;5.00;;;;;;;30.05;40.56;98792.00;135961;1273;25249;-64
2023/10/13 12:38:50;;;;;;;18.20;4.90;;;;;;;30.39;39.81;98787.45;135923;1273;23299;-65
2023/10/13 12:49:03;;;;;;;19.50;5.20;;;;;;;29.79;39.62;98796.58;135702;1278;22519;-65
2023/10/13 12:52:15;;;;;;;20.70;5.70;;;;;;;29.24;40.62;98805.88;135990;1273;22639;-65
2023/10/13 12:55:21;;;;;;;17.70;5.40;;;;;;;29.37;40.55;98805.70;135953;1273;22534;-65
2023/10/13 12:58:26;;;;;;;16.90;5.00;;;;;;;29.17;40.49;98794.23;135980;1273;25417;-63
2023/10/13 13:01:32;;;;;;;16.40;5.60;;;;;;;29.24;41.21;98788.69;135940;1273;22651;-63
2023/10/13 13:04:36;;;;;;;19.00;4.90;;;;;;;29.42;41.15;98784.58;135967;1273;22630;-64
2023/10/13 13:07:46;;;;;;;18.50;5.20;;;;;;;29.40;40.28;98778.34;135985;1273;22523;-63
2023/10/13 13:10:49;;;;;;;17.30;4.70;;;;;;;29.60;40.29;98767.86;135980;1273;22543;-65
2023/10/13 13:13:51;;;;;;;17.40;5.10;;;;;;;29.95;39.40;98765.01;135942;1273;22524;-65
2023/10/13 13:16:54;;;;;;;14.90;4.90;;;;;;;29.87;39.48;98762.83;135959;1273;22531;-65
2023/10/13 13:19:56;;;;;;;18.70;5.60;;;;;;;30.12;40.22;98755.92;135922;1273;24391;-65
2023/10/13 13:23:02;;;;;;;20.80;6.00;;;;;;;30.28;39.50;98751.76;135973;1273;22534;-64
2023/10/13 13:26:15;;;;;;;19.30;6.30;;;;;;;30.19;39.87;98748.65;135983;1273;26630;-65
2023/10/13 13:29:18;;;;;;;21.50;6.00;;;;;;;30.02;40.11;98753.46;135921;1273;26637;-65
2023/10/13 13:32:23;;;;;;;21.80;6.00;;;;;;;29.87;39.99;98749.67;135966;1273;22530;-65
2023/10/13 13:35:33;;;;;;;19.60;5.40;;;;;;;29.80;40.18;98750.39;135952;1273;22542;-63
2023/10/13 13:38:35;;;;;;;21.20;5.90;;;;;;;29.80;40.56;98751.59;135921;1273;23661;-64
2023/10/13 13:41:38;;;;;;;21.20;6.50;;;;;;;29.86;40.59;98747.32;135921;1273;22539;-65
2023/10/13 13:44:46;;;;;;;20.10;6.80;;;;;;;29.82;40.53;98739.98;135927;1258;24191;-65
2023/10/13 13:47:53;;;;;;;21.80;5.80;;;;;;;29.34;41.50;98742.85;135989;1273;22527;-63
2023/10/13 13:51:03;;;;;;;22.00;6.50;;;;;;;29.16;41.73;98739.16;135950;1273;22553;-65
2023/10/13 13:54:07;;;;;;;20.30;6.30;;;;;;;29.36;41.81;98730.67;135987;1273;24337;-65
2023/10/13 13:57:09;;;;;;;22.90;6.90;;;;;;;29.51;42.07;98724.48;135974;1273;22550;-64
2023/10/13 14:00:16;;;;;;;19.30;6.00;;;;;;;29.72;41.69;98720.80;135965;1273;26501;-63
2023/10/13 14:03:30;;;;;;;19.00;6.50;;;;;;;29.64;41.52;98723.11;135998;1273;25316;-64
2023/10/13 14:06:34;;;;;;;22.40;6.60;;;;;;;29.60;41.74;98718.52;135915;1273;22541;-64
2023/10/13 14:09:40;;;;;;;22.30;7.20;;;;;;;29.73;41.44;98716.77;135913;1273;22538;-65
2023/10/13 14:12:42;;;;;;;23.50;7.60;;;;;;;29.85;41.30;98712.39;135924;1273;25341;-65
2023/10/13 14:15:46;;;;;;;23.20;7.30;;;;;;;29.76;41.30;98706.38;135985;1251;24366;-65
2023/10/13 14:18:48;;;;;;;22.10;6.90;;;;;;;29.65;41.29;98705.80;135970;1273;22530;-65
2023/10/13 14:21:53;;;;;;;20.80;7.20;;;;;;;29.43;41.53;98703.80;135936;1273;22534;-63
2023/10/13 14:24:55;;;;;;;21.70;7.00;;;;;;;29.39;41.74;98696.33;135935;1273;23309;-65
2023/10/13 14:27:58;;;;;;;24.80;7.60;;;;;;;29.28;41.87;98692.66;135976;1254;22531;-62
2023/10/13 14:31:01;;;;;;;21.80;7.30;;;;;;;29.15;42.23;98693.13;135946;1273;22543;-65
2023/10/13 14:34:03;;;;;;;22.90;7.20;;;;;;;29.13;42.40;98688.82;135938;1273;22538;-64
2023/10/13 14:37:06;;;;;;;24.50;7.30;;;;;;;29.09;42.46;98689.51;135927;1273;22535;-64
2023/10/13 14:40:12;;;;;;;23.60;7.90;;;;;;;28.98;42.72;98690.90;135964;1273;22547;-64
2023/10/13 14:43:14;;;;;;;23.90;8.00;;;;;;;28.89;42.64;98690.09;135942;1273;25411;-63
2023/10/13 14:46:17;;;;;;;25.70;8.10;;;;;;;28.79;42.89;98690.13;135902;1263;24250;-65
2023/10/13 14:49:19;;;;;;;23.50;7.80;;;;;;;28.53;43.21;98686.40;135959;1273;22525;-63
2023/10/13 14:52:22;;;;;;;23.60;7.20;;;;;;;28.39;43.52;98680.27;135977;1273;22770;-65
2023/10/13 14:55:37;;;;;;;20.70;6.70;;;;;;;28.35;43.67;98677.00;136030;1249;25590;-66
2023/10/13 14:58:42;;;;;;;21.70;7.20;;;;;;;28.27;43.85;98681.46;135980;1273;22597;-65
2023/10/13 15:01:45;;;;;;;24.20;7.30;;;;;;;28.17;44.02;98680.20;135972;1273;22554;-64
2023/10/13 15:04:48;;;;;;;24.40;7.20;;;;;;;28.11;43.99;98678.05;135963;1273;22530;-66
2023/10/13 15:07:51;;;;;;;24.70;7.90;;;;;;;27.95;44.19;98676.08;135939;1273;22524;-65
2023/10/13 15:10:53;;;;;;;23.80;7.70;;;;;;;27.91;44.52;98668.65;135991;1273;22537;-65
2023/10/13 15:13:56;;;;;;;22.90;8.00;;;;;;;27.79;44.55;98667.64;135942;1273;22547;-65
2023/10/13 15:17:00;;;;;;;25.90;8.00;;;;;;;27.67;44.88;98669.02;135925;1273;22562;-65
2023/10/13 15:20:03;;;;;;;22.70;7.10;;;;;;;27.69;44.82;98665.61;135924;1273;22579;-65
2023/10/13 15:23:06;;;;;;;24.80;7.20;;;;;;;27.76;44.72;98665.81;135969;1273;22542;-65
2023/10/13 15:26:09;;;;;;;22.30;7.60;;;;;;;27.66;44.83;98662.21;135974;1273;22546;-66
2023/10/13 15:29:12;;;;;;;25.70;7.60;;;;;;;27.46;45.39;98661.19;135982;1273;22530;-65
2023/10/13 15:35:35;;;;;;;24.20;7.60;;;;;;;27.35;45.53;98662.47;135960;1273;22524;-65
2023/10/13 15:38:37;;;;;;;23.70;7.20;;;;;;;27.27;45.90;98658.84;135998;1273;22538;-64
2023/10/13 15:41:40;;;;;;;21.60;7.90;;;;;;;27.26;45.77;98659.92;136012;1273;25265;-65
2023/10/13 15:44:43;;;;;;;20.90;6.80;;;;;;;27.14;45.82;98656.82;135978;1273;23876;-64
2023/10/13 15:47:46;;;;;;;21.70;6.90;;;;;;;27.02;46.13;98657.31;135924;1273;22527;-64
2023/10/13 15:50:49;;;;;;;21.80;7.80;;;;;;;26.98;46.15;98659.58;135943;1273;22535;-65
2023/10/13 15:53:52;;;;;;;22.00;7.20;;;;;;;26.98;46.20;98660.66;135970;1273;22531;-64
2023/10/13 15:56:55;;;;;;;25.60;7.70;;;;;;;26.84;46.39;98651.47;136025;1273;24384;-65
2023/10/13 15:59:57;;;;;;;25.80;7.70;;;;;;;26.77;46.58;98647.10;135999;1273;22550;-65
2023/10/13 16:03:00;;;;;;;27.00;9.10;;;;;;;26.65;46.79;98644.52;135994;1273;22531;-65
2023/10/13 16:06:04;;;;;;;24.40;8.20;;;;;;;26.53;47.09;98647.91;135961;1273;24361;-65
2023/10/13 16:09:13;;;;;;;24.30;8.70;;;;;;;26.42;47.42;98648.23;135969;1273;22653;-64
2023/10/13 16:12:17;;;;;;;26.40;8.70;;;;;;;26.37;47.38;98643.59;135989;1273;22536;-65
2023/10/13 16:15:21;;;;;;;25.60;8.90;;;;;;;26.34;47.48;98642.95;135949;1273;25346;-65
2023/10/13 16:18:23;;;;;;;24.10;8.10;;;;;;;26.34;47.59;98644.19;135908;1273;22542;-64
2023/10/13 16:21:26;;;;;;;21.90;7.40;;;;;;;26.29;47.65;98643.88;135966;1273;24963;-64